This is the latest recevied telemetry packets stored in our database for station/object OK4AB-10. If no packets are shown the sender has not sent any telemetry packets the latest 1 day(s).
Telemetry packets is used to share measurements like repeteater parameters, battery voltage, radiation readings (or any other measurements).
| Time | Temperatu* | Humidity* | Pressure* | Battery* | Satellite* |
|---|---|---|---|---|---|
| 1778076392 | 27.67 C | 43.23 % | 964.9 hPa | 0 V | 12 |
| 1778076332 | 27.67 C | 43.25 % | 964.9 hPa | 0 V | 12 |
| 1778076212 | 27.67 C | 43.21 % | 964.9 hPa | 0 V | 12 |
| 1778076152 | 27.68 C | 43.24 % | 964.9 hPa | 0 V | 12 |
| 1778075972 | 27.7 C | 43.12 % | 964.9 hPa | 0 V | 12 |
| 1778075792 | 27.71 C | 43.12 % | 964.9 hPa | 0 V | 12 |
| 1778075672 | 27.72 C | 43.1 % | 965 hPa | 0 V | 12 |
| 1778075492 | 27.73 C | 43.04 % | 965 hPa | 0 V | 12 |
| 1778075432 | 27.73 C | 43 % | 965 hPa | 0 V | 12 |
| 1778075252 | 27.76 C | 42.92 % | 965 hPa | 0 V | 12 |
| 1778074772 | 27.79 C | 42.81 % | 964.9 hPa | 0 V | 12 |
| 1778074592 | 27.79 C | 42.75 % | 964.9 hPa | 0 V | 12 |
| 1778074532 | 27.8 C | 42.79 % | 964.9 hPa | 0 V | 12 |
| 1778074352 | 27.84 C | 42.7 % | 964.9 hPa | 0 V | 12 |
| 1778074232 | 27.86 C | 42.68 % | 964.9 hPa | 0 V | 12 |
| 1778074052 | 27.89 C | 42.44 % | 965 hPa | 0 V | 12 |
| 1778073992 | 27.92 C | 42.43 % | 965 hPa | 0 V | 12 |
| 1778073812 | 27.97 C | 42.48 % | 965 hPa | 0 V | 12 |
| 1778073692 | 28.04 C | 42.07 % | 965 hPa | 0 V | 12 |
| 1778073512 | 28.11 C | 42.05 % | 965.1 hPa | 0 V | 12 |
| 1778073452 | 28.12 C | 42.06 % | 965.1 hPa | 0 V | 12 |
| 1778073332 | 28.15 C | 42.22 % | 965.1 hPa | 0 V | 12 |
| 1778073092 | 28.23 C | 41.83 % | 965.2 hPa | 0 V | 12 |
| 1778072912 | 28.32 C | 41.89 % | 965.2 hPa | 0 V | 12 |
| 1778072552 | 28.57 C | 41.03 % | 965.3 hPa | 0 V | 12 |
*Used Equation Coefficients:
Temperatu: 0, 0.01, 0
Humidity: 0, 0.01, 0
Pressure: 0, 0.1, 800
Battery: 0, 0.01, 0
Satellite: 0, 1, 0
- The parameter names for the analog channels will be Value1, Value2, Value3 (up to Value5) if station has not sent a PARAM-packet that specifies the parameter names for each analog channel.
- Each analog value is a decimal number between 000 and 255 (according to APRS specifications). The receiver use the telemetry equation coefficientsto to restore the original sensor values. If no EQNS-packet with equation coefficients is sent we will show the values as is (this corresponds to the equation coefficients a=0, b=1 and c=0).
The sent equation coefficients is used in the equation: a * value2 + b * value + c. - The units for the analog values will not be shown if station has not sent a UNIT-packet specifying what unit's to use.
- The parameter names for the digital bits will be Bit1, Bit2, Bit3 (up to Bit8) if station has not sent a PARAM-packet that specifies the parameter names for each digital bit.
- All bit labels will be named "On" if station has not sent a UNIT-packet that specifies the label of each bit.
- A bit is considered to be On when the bit is 1 if station has not sent a BITS-packet that specifies another "Bit sense" (a BITS-packet specify the state of the bits that match the BIT labels)